On Going
EVSN Company Name Start Date End Date Live Streaming
210217003 ABHINAV COMMERCIAL LIMITED 18-Feb-2021 10:00 19-Mar-2021 17:00
210226003 ADHUNIK INDUSTRIES LIMITED (FORMERLY BHAGWATI RESOURCES LTD, DHUNSERI PLANTATION AND MARKETING LTD) 03-Mar-2021 09:00 01-Apr-2021 17:00
210215004 ALKEM LABORATORIES LIMITED#FORMERLY ALKEM LABORATORIES PRIVATE LIMITED 23-Feb-2021 09:00 24-Mar-2021 17:00
210218001 APOLLO TRICOAT TUBES LIMITED#FORMERLY BEST STEEL LOGISTICS LIMITED 19-Feb-2021 10:00 20-Mar-2021 17:00
210204001 ASTRAL POLY TECHNIK LIMITED (FORMERLY ASTRAL POLY TECHNIK PRIVATE LIMITED) 08-Feb-2021 09:00 09-Mar-2021 17:00
210215006 AURO LABORATORIES LIMITED 18-Feb-2021 09:00 19-Mar-2021 17:00
210219002 B&B TRIPLEWALL CONTAINERS LIMITED#FORMERLY B&B TRIPLEWALL CONTAINERS PRIVATE LIMITED 26-Feb-2021 11:00 27-Mar-2021 17:00
210227001 CAREER POINT LIMITED#FORMERLY CAREER POINT INFOSYSTEMS LIMITED 04-Mar-2021 09:00 05-Apr-2021 17:00
210217005 CLARIANT CHEMICALS (INDIA) LIMITED(FORMERLY COLOUR CHEM LIMITED) 25-Feb-2021 09:00 26-Mar-2021 17:00
210215001 COSMO FERRITES LIMITED 22-Feb-2021 10:00 23-Mar-2021 17:00
210302001 CROWN TOURS LIMITED# FORMERLY CROWN TOURS PVT LTD 03-Mar-2021 09:00 01-Apr-2021 17:00
210219003 EMAMI PAPER MILLS LIMITED 24-Feb-2021 09:00 26-Mar-2021 17:00
210222009 EMAMI PAPER MILLS LIMITED 24-Feb-2021 09:00 26-Mar-2021 17:00
210129004 GLOBE INTERNATIONAL CARRIERS LIMITED#FORMERLY GLOBE INTERNATIONAL CARRIERS PRIVATE LIMITED 11-Feb-2021 10:00 12-Mar-2021 17:00
210215002 GODREJ INDUSTRIES LIMITED#FORMERLY GODREJ SOAPS LIMITED 23-Feb-2021 09:00 24-Mar-2021 17:00
210212006 GORANI INDUSTRIES LIMITED 16-Feb-2021 09:00 17-Mar-2021 17:00
210209002 HEG LIMITED 13-Feb-2021 09:00 14-Mar-2021 17:00
210222005 HEMISPHERE PROPERTIES INDIA LIMITED 25-Feb-2021 09:00 26-Mar-2021 17:00
210223002 HINDOOSTAN MILLS LIMITED (FORMERLY THE SIRDAR CARBONIC GAS COMPANY LIMITED) 27-Feb-2021 09:00 28-Mar-2021 17:00
210216001 JAIPRAKASH ASSOCIATES LIMITED (FORMERLY JAYPEE CEMENT LTD) 20-Feb-2021 09:00 21-Mar-2021 17:00
210211003 KAPSTON FACILITIES MANAGEMENT LIMITED# FORMERLY KAPSTON FACILITIES MANAGEMENT PRIVATE LIMITED 16-Feb-2021 09:00 17-Mar-2021 17:00
210206002 KINETIC ENGINEERING LIMITED 13-Feb-2021 09:00 14-Mar-2021 17:00
210213001 KPI GLOBAL INFRASTRUCTURE LIMITED 17-Feb-2021 09:00 18-Mar-2021 17:00
210223004 KUSAM ELECTRICAL INDUSTRIES LIMITED 25-Feb-2021 09:00 27-Mar-2021 17:00
210212003 LATENT LIGHT FINANCE LIMITED#FORMERLY GALAXY COMMERCIAL LIMITED 20-Feb-2021 09:00 22-Mar-2021 17:00
210212001 LLOYD ROCKFIBRES LIMITED 05-Mar-2021 09:00 07-Mar-2021 17:00 08-Mar-2021 15:00
210205001 MAC CHARLES (INDIA) LIMITED (FORMERLY MAC CHARLES BROTHERS PRIVATE LIMITED) 08-Feb-2021 10:00 09-Mar-2021 17:00
210208002 MAWANA SUGARS LIMITED#FORMERLY SIEL LIMITED 11-Feb-2021 09:00 12-Mar-2021 17:00
210208004 MODERN INDIA LIMITED (FORMERLY THE MODERN MILLS LIMITED) 19-Feb-2021 09:00 20-Mar-2021 17:00
210213002 MONEYBOXX FINANCE LIMITED#FORMERLY DHANUKA COMMERCIAL LTD. 17-Feb-2021 09:00 18-Mar-2021 17:00
210224002 NIKHIL ADHESIVES LIMITED 25-Feb-2021 09:00 26-Mar-2021 17:00
210218003 NRB BEARINGS LIMITED 22-Feb-2021 09:00 23-Mar-2021 17:00
210203003 RESONANCE SPECIALTIES LTD- FORMERLY ARMOUR POLYMERS LTD 09-Feb-2021 09:00 10-Mar-2021 17:00
210303002 RITESH PROPERTIES AND INDUSTRIES LIMITED (FORMERLY RITESH INDUSTRIES LIMITED) 04-Mar-2021 09:00 02-Apr-2021 17:00
210215003 RUNGTA IRRIGATION LIMITED 16-Feb-2021 10:00 17-Mar-2021 17:00
210210001 S.I. CAPITAL & FINANCIAL SERVICES LIMITED 11-Feb-2021 09:00 12-Mar-2021 17:00
210302004 SDC TECHMEDIA LIMITED#FORMERLY ONESOURCE TECHMEDIA LIMITED 05-Mar-2021 09:00 03-Apr-2021 17:00
210211002 SHARDA MOTOR INDUSTRIES LIMITED 20-Feb-2021 09:00 22-Mar-2021 17:00
210213003 SHREE RAJASTHAN SYNTEX LIMITED 16-Feb-2021 09:00 17-Mar-2021 17:00
210216002 SHRIRAM EPC LIMITED 17-Feb-2021 09:00 18-Mar-2021 17:00
210203002 SHRIRAM TRANSPORT FINANCE COMPANY LTD 09-Feb-2021 09:00 10-Mar-2021 17:00
210218002 SIS LIMITED#FORMERLY SECURITY AND INTELLIGENCE SERVICES (INDIA) LTD 19-Feb-2021 09:00 20-Mar-2021 17:00
210209001 SOLARA ACTIVE PHARMA SCIENCES LIMITED#FORMERLY SSL PHARMA SCIENCES LIMITED 13-Feb-2021 09:00 14-Mar-2021 17:00
210222007 STEADFAST CORPORATION LIMITED # INFOBAHN CORPORATION LIMITED, INFOBAHN TECHNOLOGIES LIMITED) 25-Feb-2021 09:00 26-Mar-2021 17:00
210206001 SUNDARAM FINANCE LIMITED 10-Feb-2021 09:00 11-Mar-2021 17:00
210212004 SUPRA PACIFIC MANAGEMENT CONSULTANCY LIMITED#FORMERLY MONTAGE HOUSING FINANCE PRIVATE LIMITED 25-Feb-2021 09:00 26-Mar-2021 17:00
210217002 UDAIPUR CEMENT WORKS LIMITED#FORMERLY J K UDAIPUR UDYOG LIMITED 20-Feb-2021 10:00 21-Mar-2021 17:00
210224007 V S T TILLERS TRACTORS LIMITED 27-Feb-2021 09:00 28-Mar-2021 17:00
210211001 VIKAS ECOTECH LIMITED#FORMERLY VIKAS PROFIN LTD,VIKAS LEASING LTD,VIKAS GLOBALONE LTD 13-Feb-2021 09:00 14-Mar-2021 17:00
210210002 VIKAS MULTICORP LIMITED#FORMERLY MOONLITE TECHNOCHEM LIMITED 13-Feb-2021 09:00 14-Mar-2021 17:00
© Copyright 2019. All rights reserved with Central Depository Services (India) Limited, India